Time;durP1;ratioP1;P1;durP2;ratioP2;P2;SDS_P1;SDS_P2;PMS_P1;PMS_P2;Temp;Humidity;BMP_temperature;BMP_pressure;BME280_temperature;BME280_humidity;BME280_pressure;Samples;Min_cycle;Max_cycle;Signal;HPM_P1;HPM_P2
2022/03/22 00:00:08;;;;;;;13.20;10.43;;;;;;;6.34;49.75;152988.47;5052955;28;20459;-74
2022/03/22 00:02:49;;;;;;;16.47;12.37;;;;;;;6.26;50.04;152969.13;5054198;28;20443;-76
2022/03/22 00:05:25;;;;;;;15.10;11.80;;;;;;;6.16;50.61;152942.03;5054577;28;20446;-77
2022/03/22 00:08:03;;;;;;;13.40;11.20;;;;;;;6.13;50.85;152936.88;5050450;28;20442;-76
2022/03/22 00:10:39;;;;;;;16.60;11.40;;;;;;;6.11;51.35;152930.44;5054487;28;20449;-75
2022/03/22 00:13:14;;;;;;;13.00;10.40;;;;;;;6.07;51.11;152921.38;5032965;28;20479;-76
2022/03/22 00:15:50;;;;;;;16.70;11.47;;;;;;;6.00;51.37;152902.03;5041662;28;20434;-76
2022/03/22 00:18:27;;;;;;;14.13;11.83;;;;;;;5.88;51.45;152872.34;5050725;28;20448;-76
2022/03/22 00:21:03;;;;;;;13.57;10.80;;;;;;;5.93;51.31;152884.00;5042501;28;20453;-76
2022/03/22 00:23:38;;;;;;;15.50;11.70;;;;;;;5.91;51.27;152878.81;5053754;28;20485;-76
2022/03/22 00:26:14;;;;;;;14.60;11.70;;;;;;;5.84;51.26;152862.00;5055224;28;20453;-76
2022/03/22 00:28:50;;;;;;;15.00;11.53;;;;;;;5.85;51.46;152864.63;5068396;28;20518;-75
2022/03/22 00:31:26;;;;;;;16.47;11.73;;;;;;;5.88;51.34;152872.34;5053262;28;20457;-76
2022/03/22 00:34:02;;;;;;;14.20;10.97;;;;;;;5.90;50.52;152877.56;5045496;28;20446;-75
2022/03/22 00:36:38;;;;;;;13.40;11.33;;;;;;;5.86;51.06;152867.22;5069909;28;20928;-76
2022/03/22 00:39:14;;;;;;;14.80;10.13;;;;;;;5.84;51.68;152862.00;5052592;28;20446;-76
2022/03/22 00:41:49;;;;;;;15.93;11.57;;;;;;;5.78;52.36;152846.53;5046126;28;20475;-76
2022/03/22 00:44:25;;;;;;;13.93;11.40;;;;;;;5.77;51.72;152843.94;5055509;28;20466;-76
2022/03/22 00:47:02;;;;;;;18.50;11.07;;;;;;;5.74;52.04;152836.22;5054273;28;20453;-76
2022/03/22 00:49:39;;;;;;;16.20;11.70;;;;;;;5.69;52.03;152823.34;5057946;28;20441;-75
2022/03/22 00:52:14;;;;;;;15.40;12.13;;;;;;;5.68;52.03;152820.75;5048090;28;20782;-75
2022/03/22 00:54:50;;;;;;;14.30;11.30;;;;;;;5.71;51.86;152827.19;5053001;28;20444;-76
2022/03/22 00:57:25;;;;;;;12.70;10.50;;;;;;;5.69;51.62;152823.34;5053450;28;20508;-75
2022/03/22 01:00:05;;;;;;;14.73;11.10;;;;;;;5.67;51.49;152818.16;5051359;28;20435;-76
2022/03/22 01:02:42;;;;;;;14.50;10.90;;;;;;;5.66;52.12;152814.28;5049258;28;20881;-76
2022/03/22 01:05:20;;;;;;;14.37;10.87;;;;;;;5.65;51.93;152813.00;5052193;28;20532;-76
2022/03/22 01:07:58;;;;;;;15.83;11.37;;;;;;;5.62;52.15;152805.25;5042346;28;20450;-76
2022/03/22 01:10:35;;;;;;;15.97;10.97;;;;;;;5.60;52.46;152800.09;5053312;28;20462;-76
2022/03/22 01:13:11;;;;;;;14.60;11.13;;;;;;;5.65;52.15;152813.00;5054942;28;20920;-76
2022/03/22 01:15:47;;;;;;;13.13;11.07;;;;;;;5.62;51.95;152805.25;5035045;28;20458;-76
2022/03/22 01:18:25;;;;;;;12.07;10.70;;;;;;;5.63;52.83;152806.56;5055352;28;20458;-75
2022/03/22 01:21:01;;;;;;;15.13;12.17;;;;;;;5.57;52.65;152792.38;5058232;28;20450;-76
2022/03/22 01:23:37;;;;;;;16.20;10.60;;;;;;;5.55;52.88;152787.22;5054721;28;20459;-75
2022/03/22 01:26:14;;;;;;;15.43;11.00;;;;;;;5.51;52.50;152776.88;5049269;28;20791;-76
2022/03/22 01:28:49;;;;;;;14.80;11.37;;;;;;;5.52;52.05;152779.47;5057245;28;20438;-76
2022/03/22 01:31:26;;;;;;;15.63;11.80;;;;;;;5.45;52.80;152762.69;5059797;28;20943;-76
2022/03/22 01:34:03;;;;;;;15.37;11.50;;;;;;;5.46;52.82;152764.00;5057957;28;20856;-75
2022/03/22 01:36:40;;;;;;;14.60;11.60;;;;;;;5.38;52.94;152743.34;5036869;28;20470;-76
2022/03/22 01:39:16;;;;;;;14.27;11.50;;;;;;;5.36;52.73;152739.50;5055094;28;20451;-75
2022/03/22 01:41:52;;;;;;;14.50;12.17;;;;;;;5.38;52.87;152743.34;5053484;28;20451;-76
2022/03/22 01:44:28;;;;;;;15.13;11.03;;;;;;;5.36;52.74;152739.50;5051906;28;20474;-75
2022/03/22 01:47:05;;;;;;;15.60;11.93;;;;;;;5.28;53.47;152717.59;5053084;28;20449;-76
2022/03/22 01:49:41;;;;;;;16.10;11.03;;;;;;;5.25;53.42;152711.13;5038581;28;20438;-76
2022/03/22 01:52:20;;;;;;;17.30;11.97;;;;;;;5.16;54.23;152687.97;5073708;28;20442;-76
2022/03/22 01:54:56;;;;;;;16.23;11.60;;;;;;;5.10;54.61;152671.19;5047504;28;20549;-75
2022/03/22 01:57:33;;;;;;;17.17;12.00;;;;;;;5.03;54.84;152653.16;5059593;28;20453;-76
2022/03/22 02:00:11;;;;;;;16.00;11.70;;;;;;;4.99;54.03;152642.81;5058159;28;20450;-76
2022/03/22 02:05:55;;;;;;;16.20;12.53;;;;;;;5.06;53.55;152660.84;5069712;28;20543;-76
2022/03/22 02:08:32;;;;;;;18.93;11.90;;;;;;;5.04;53.37;152657.00;5054964;28;21137;-75
2022/03/22 02:11:08;;;;;;;13.90;11.63;;;;;;;4.99;53.83;152642.81;5058236;28;20467;-76
2022/03/22 02:13:43;;;;;;;16.00;12.20;;;;;;;4.95;53.80;152633.78;5057740;28;20459;-76
2022/03/22 02:16:19;;;;;;;15.40;11.80;;;;;;;4.98;53.97;152640.28;5052329;28;21207;-76
2022/03/22 02:18:55;;;;;;;18.17;11.23;;;;;;;4.98;53.98;152640.28;5051826;28;20476;-75
2022/03/22 02:21:32;;;;;;;17.93;12.10;;;;;;;5.02;53.18;152651.84;5059611;28;20458;-74
2022/03/22 02:24:09;;;;;;;14.77;11.80;;;;;;;5.03;53.54;152653.16;5065637;28;20477;-76
2022/03/22 02:26:45;;;;;;;15.50;12.60;;;;;;;4.96;54.88;152635.06;5050343;28;20452;-76
2022/03/22 02:29:21;;;;;;;15.90;11.50;;;;;;;4.84;54.54;152606.72;5043622;28;20462;-76
2022/03/22 02:31:57;;;;;;;16.97;11.90;;;;;;;4.73;54.58;152578.41;5057251;28;21422;-76
2022/03/22 02:34:36;;;;;;;15.50;12.27;;;;;;;4.70;55.18;152569.38;5036037;28;20492;-76
2022/03/22 02:37:11;;;;;;;15.60;12.00;;;;;;;4.62;55.18;152550.06;5056550;28;21245;-76
2022/03/22 02:39:49;;;;;;;15.07;11.87;;;;;;;4.59;56.00;152541.03;5074833;28;20458;-76
2022/03/22 02:42:24;;;;;;;20.50;13.23;;;;;;;4.58;55.85;152539.72;5066088;28;20538;-76
2022/03/22 02:45:00;;;;;;;14.97;12.43;;;;;;;4.58;55.80;152539.72;5041185;28;20459;-76
2022/03/22 02:47:35;;;;;;;16.17;13.63;;;;;;;4.61;55.32;152547.47;5059595;28;20438;-76
2022/03/22 02:50:12;;;;;;;19.20;12.93;;;;;;;4.62;55.32;152550.06;5058856;28;20482;-76
2022/03/22 02:52:47;;;;;;;16.17;13.87;;;;;;;4.68;55.56;152564.22;5057482;28;20573;-76
2022/03/22 02:55:24;;;;;;;17.07;13.30;;;;;;;4.62;55.73;152550.06;5051949;28;20443;-76
2022/03/22 02:58:00;;;;;;;17.77;13.20;;;;;;;4.59;55.73;152541.03;5053177;28;20446;-76
2022/03/22 03:00:36;;;;;;;18.33;13.73;;;;;;;4.56;55.66;152534.59;5059691;28;20449;-76
2022/03/22 03:03:12;;;;;;;18.27;14.10;;;;;;;4.55;55.99;152532.03;5055463;28;20528;-76
2022/03/22 03:05:48;;;;;;;16.87;12.97;;;;;;;4.55;55.73;152532.03;5050926;28;20554;-76
2022/03/22 03:08:26;;;;;;;19.50;13.60;;;;;;;4.54;56.27;152528.13;5054882;28;20457;-76
2022/03/22 03:11:03;;;;;;;18.57;14.07;;;;;;;4.45;56.59;152506.22;5073776;28;20442;-76
2022/03/22 03:16:31;;;;;;;17.70;13.37;;;;;;;4.44;55.89;152502.38;5051773;28;20440;-77
2022/03/22 03:19:08;;;;;;;21.83;14.20;;;;;;;4.38;56.94;152488.22;5058604;28;20563;-76
2022/03/22 03:21:43;;;;;;;17.00;13.23;;;;;;;4.37;56.99;152485.63;5051669;28;20450;-75
2022/03/22 03:24:19;;;;;;;18.77;13.73;;;;;;;4.34;56.36;152477.94;5051698;28;20479;-76
2022/03/22 03:26:56;;;;;;;16.73;13.33;;;;;;;4.35;57.05;152479.19;5057411;28;20940;-76
2022/03/22 03:29:31;;;;;;;16.20;12.30;;;;;;;4.40;56.51;152492.06;5041549;28;20447;-76
2022/03/22 03:32:07;;;;;;;15.47;11.80;;;;;;;4.48;56.31;152513.97;5052041;28;20458;-76
2022/03/22 03:34:43;;;;;;;15.90;12.93;;;;;;;4.63;55.71;152552.59;5040666;28;20470;-76
2022/03/22 03:37:19;;;;;;;16.23;13.60;;;;;;;4.56;55.94;152534.59;5053302;28;20430;-76
2022/03/22 03:39:54;;;;;;;15.90;12.17;;;;;;;4.55;56.23;152532.03;5054675;28;20505;-76
2022/03/22 03:42:32;;;;;;;20.57;14.17;;;;;;;4.66;56.10;152559.09;5076401;28;20445;-76
2022/03/22 03:48:02;;;;;;;18.50;12.53;;;;;;;4.79;55.22;152592.59;5060263;28;20441;-76
2022/03/22 03:50:38;;;;;;;17.90;13.57;;;;;;;4.77;55.14;152588.69;5059443;28;20473;-76
2022/03/22 03:53:16;;;;;;;17.03;13.63;;;;;;;4.74;55.56;152580.97;5075593;28;20441;-76
2022/03/22 03:55:52;;;;;;;16.50;13.03;;;;;;;4.61;56.12;152547.47;5036072;28;20449;-76
2022/03/22 03:58:30;;;;;;;18.53;13.27;;;;;;;4.63;56.13;152552.59;5053512;28;20458;-76
2022/03/22 04:01:06;;;;;;;19.17;13.30;;;;;;;4.57;56.17;152537.19;5052354;28;20453;-76
2022/03/22 04:03:42;;;;;;;18.03;13.70;;;;;;;4.55;56.63;152532.03;5041301;28;20455;-77
2022/03/22 04:06:17;;;;;;;17.90;13.90;;;;;;;4.50;56.72;152519.09;5042406;28;20446;-76
2022/03/22 04:08:53;;;;;;;18.47;12.83;;;;;;;4.50;56.74;152517.84;5073179;28;20452;-76
2022/03/22 04:11:28;;;;;;;15.17;13.17;;;;;;;4.54;56.20;152529.44;5072815;28;20442;-76
2022/03/22 04:14:05;;;;;;;18.10;13.80;;;;;;;4.53;56.37;152525.53;5032129;28;20721;-76
2022/03/22 04:16:41;;;;;;;17.30;13.33;;;;;;;4.44;57.22;152503.69;5050976;28;20458;-75
2022/03/22 04:19:17;;;;;;;18.10;14.50;;;;;;;4.37;57.05;152485.63;5056240;28;20762;-76
2022/03/22 04:21:52;;;;;;;18.53;13.93;;;;;;;4.34;58.14;152477.94;5053981;28;20458;-77
2022/03/22 04:24:28;;;;;;;16.07;13.77;;;;;;;4.16;58.58;152432.81;5029167;28;20474;-76
2022/03/22 04:32:49;;;;;;;17.20;13.90;;;;;;;3.92;59.72;152371.00;5053219;28;20804;-76
2022/03/22 04:35:27;;;;;;;16.23;12.40;;;;;;;3.92;60.00;152371.00;5050175;28;20523;-76
2022/03/22 04:38:02;;;;;;;15.80;12.40;;;;;;;3.88;60.17;152359.44;5041860;28;20438;-76
2022/03/22 04:40:39;;;;;;;18.47;12.70;;;;;;;3.87;60.24;152358.13;5037968;28;20453;-77
2022/03/22 04:43:14;;;;;;;17.93;13.90;;;;;;;3.84;60.27;152349.16;5051946;28;20955;-76
2022/03/22 04:45:51;;;;;;;17.90;14.03;;;;;;;3.77;60.44;152331.09;5036376;28;20474;-76
2022/03/22 04:48:27;;;;;;;19.63;13.90;;;;;;;3.85;60.82;152351.69;5056984;28;20453;-75
2022/03/22 04:56:49;;;;;;;17.73;13.77;;;;;;;3.66;61.13;152304.06;5053069;28;20451;-76
2022/03/22 04:59:27;;;;;;;18.63;13.40;;;;;;;3.60;61.13;152289.88;5040129;28;21007;-76
2022/03/22 05:02:04;;;;;;;17.73;14.17;;;;;;;3.53;61.27;152271.88;5041126;28;20491;-76
2022/03/22 05:04:40;;;;;;;20.17;14.07;;;;;;;3.43;62.24;152246.16;5033803;28;20463;-75
2022/03/22 05:07:16;;;;;;;18.67;13.97;;;;;;;3.41;62.06;152241.00;5052819;28;20809;-76
2022/03/22 05:09:51;;;;;;;20.30;13.63;;;;;;;3.34;61.92;152222.97;5039876;28;20870;-76
2022/03/22 05:12:27;;;;;;;21.93;14.73;;;;;;;3.35;62.03;152225.56;5051535;28;20513;-76
2022/03/22 05:15:03;;;;;;;16.63;12.50;;;;;;;3.36;62.38;152226.84;5034791;28;20444;-76
2022/03/22 05:17:40;;;;;;;18.23;14.50;;;;;;;3.30;62.43;152212.69;5053181;28;20442;-76
2022/03/22 05:20:16;;;;;;;18.80;14.13;;;;;;;3.22;62.59;152192.09;5035307;28;20528;-76
2022/03/22 05:22:51;;;;;;;17.10;12.70;;;;;;;3.22;63.14;152192.09;5052014;28;20538;-77
2022/03/22 05:25:30;;;;;;;19.53;14.30;;;;;;;3.19;63.55;152184.38;5058133;28;20469;-77
2022/03/22 05:28:05;;;;;;;21.90;14.33;;;;;;;3.14;63.38;152171.50;5058475;28;20901;-75
2022/03/22 05:30:41;;;;;;;20.90;15.17;;;;;;;3.18;63.91;152181.78;5044465;28;20457;-74
2022/03/22 05:33:18;;;;;;;18.57;13.43;;;;;;;3.19;63.39;152183.06;5056817;28;20441;-75
2022/03/22 05:35:53;;;;;;;18.80;14.10;;;;;;;3.16;63.59;152176.66;5057995;28;20454;-75
2022/03/22 05:38:29;;;;;;;19.13;14.30;;;;;;;3.22;64.21;152192.09;5052245;28;20454;-75
2022/03/22 05:41:06;;;;;;;20.40;15.57;;;;;;;3.16;64.20;152176.66;5058437;28;20450;-74
2022/03/22 05:43:41;;;;;;;20.37;14.37;;;;;;;3.14;64.64;152171.50;5054921;28;20443;-75
2022/03/22 05:46:17;;;;;;;19.17;13.33;;;;;;;3.12;65.15;152165.06;5043979;28;20850;-74
2022/03/22 05:48:54;;;;;;;17.27;14.50;;;;;;;3.08;65.10;152156.06;5037553;28;20454;-74
2022/03/22 05:51:29;;;;;;;19.63;14.70;;;;;;;3.07;65.37;152153.50;5056297;28;20481;-76
2022/03/22 05:54:05;;;;;;;18.27;14.30;;;;;;;3.07;65.73;152154.75;5057416;28;20446;-75
2022/03/22 05:56:41;;;;;;;19.07;14.93;;;;;;;3.10;65.41;152159.94;5044779;28;20458;-76
2022/03/22 05:59:16;;;;;;;19.00;15.13;;;;;;;3.11;65.72;152163.78;5047522;28;20936;-77
2022/03/22 06:01:52;;;;;;;19.93;15.00;;;;;;;3.13;65.60;152167.63;5043761;28;20466;-76
2022/03/22 06:04:29;;;;;;;22.33;14.43;;;;;;;3.14;65.58;152170.22;5043332;28;20431;-76
2022/03/22 06:07:05;;;;;;;17.17;14.60;;;;;;;3.18;66.24;152180.53;5041312;28;20469;-76
2022/03/22 06:09:41;;;;;;;17.63;14.23;;;;;;;3.22;66.09;152192.09;5052361;28;20448;-76
2022/03/22 06:12:18;;;;;;;19.17;13.90;;;;;;;3.23;65.95;152194.63;5035829;28;20462;-76
2022/03/22 06:15:14;;;;;;;18.43;14.23;;;;;;;3.32;65.91;152217.81;5039596;28;20458;-76
2022/03/22 06:17:52;;;;;;;18.83;14.07;;;;;;;3.39;66.43;152235.81;5055974;28;20947;-76
2022/03/22 06:20:32;;;;;;;18.80;14.43;;;;;;;3.47;65.88;152255.13;5064315;28;20609;-75
2022/03/22 06:23:10;;;;;;;19.43;15.03;;;;;;;3.55;66.20;152277.03;5057059;28;20454;-76
2022/03/22 06:25:46;;;;;;;19.50;14.00;;;;;;;3.62;65.57;152293.78;5058191;28;20801;-76
2022/03/22 06:28:22;;;;;;;22.17;14.50;;;;;;;3.86;65.35;152355.56;5034228;28;20447;-75
2022/03/22 06:30:57;;;;;;;19.83;15.33;;;;;;;4.18;64.73;152436.72;5033555;28;21060;-76
2022/03/22 06:33:33;;;;;;;19.40;15.07;;;;;;;4.53;63.90;152526.84;5039096;28;20446;-76
2022/03/22 06:36:10;;;;;;;19.87;14.63;;;;;;;4.85;62.87;152608.03;5058179;28;20854;-77
2022/03/22 06:38:46;;;;;;;17.90;15.40;;;;;;;5.18;61.84;152691.81;5033295;28;20431;-76
2022/03/22 06:41:32;;;;;;;20.33;13.97;;;;;;;5.53;61.05;152782.06;5044112;28;20471;-76
2022/03/22 06:44:07;;;;;;;20.17;15.97;;;;;;;5.80;59.84;152851.66;5056160;28;20436;-76
2022/03/22 06:46:43;;;;;;;20.17;15.47;;;;;;;6.10;59.53;152929.13;5036680;28;20832;-76
2022/03/22 06:49:18;;;;;;;18.53;14.20;;;;;;;6.46;58.09;153019.47;5055682;28;20453;-76
2022/03/22 06:51:56;;;;;;;19.47;15.20;;;;;;;6.72;56.93;153086.56;5041676;28;20891;-76
2022/03/22 06:54:32;;;;;;;18.63;14.90;;;;;;;6.92;55.87;153138.19;5042910;28;20439;-76
2022/03/22 06:57:08;;;;;;;19.60;15.10;;;;;;;7.16;54.33;153200.16;5046021;28;20462;-76
2022/03/22 06:59:43;;;;;;;19.40;14.07;;;;;;;7.35;53.57;153247.94;5052068;28;20447;-76
2022/03/22 07:02:19;;;;;;;18.13;15.13;;;;;;;7.55;53.56;153298.28;5054009;28;20443;-74
2022/03/22 07:04:54;;;;;;;19.00;15.37;;;;;;;7.65;52.81;153325.41;5036532;28;20457;-76
2022/03/22 07:07:31;;;;;;;23.93;14.07;;;;;;;7.71;52.48;153339.63;5066391;28;20811;-76
2022/03/22 07:10:09;;;;;;;19.23;14.67;;;;;;;7.92;52.14;153395.19;5054535;28;20446;-76
2022/03/22 07:12:51;;;;;;;15.87;13.87;;;;;;;8.15;51.95;153453.34;5036767;28;20856;-77
2022/03/22 07:15:29;;;;;;;17.53;14.53;;;;;;;8.33;50.35;153499.91;5073804;28;20557;-77
2022/03/22 07:18:05;;;;;;;18.70;14.83;;;;;;;8.58;49.71;153563.22;5054534;28;20441;-77
2022/03/22 07:20:41;;;;;;;18.27;14.47;;;;;;;8.86;50.08;153635.66;5057088;28;20794;-77
2022/03/22 07:23:18;;;;;;;18.10;14.97;;;;;;;9.12;47.76;153701.59;5040326;28;20446;-77
2022/03/22 07:25:54;;;;;;;18.10;13.97;;;;;;;9.10;47.11;153697.72;5037288;28;20506;-77
2022/03/22 07:28:30;;;;;;;21.90;16.00;;;;;;;9.14;47.58;153706.75;5050052;28;20545;-77
2022/03/22 07:31:05;;;;;;;16.93;13.87;;;;;;;9.21;48.17;153723.59;5051693;28;20450;-77
2022/03/22 07:33:41;;;;;;;21.77;16.07;;;;;;;9.48;47.89;153794.69;5060310;28;20789;-77
2022/03/22 07:36:16;;;;;;;22.37;16.67;;;;;;;10.03;47.81;153934.47;5036024;28;20461;-77
2022/03/22 07:38:53;;;;;;;23.57;15.17;;;;;;;9.98;47.02;153921.53;5048818;28;20439;-77
2022/03/22 07:41:29;;;;;;;18.13;15.53;;;;;;;10.05;47.40;153939.63;5057099;28;20498;-77
2022/03/22 07:44:05;;;;;;;19.10;14.27;;;;;;;10.21;46.50;153981.09;5039802;28;20866;-77
2022/03/22 07:46:41;;;;;;;20.23;14.83;;;;;;;10.18;46.86;153973.34;5040836;28;20467;-77
2022/03/22 07:55:10;;;;;;;17.10;15.33;;;;;;;10.90;45.53;154158.50;5053758;28;20442;-76
2022/03/22 07:57:45;;;;;;;17.87;15.13;;;;;;;11.00;45.79;154185.69;5039311;28;20469;-77
2022/03/22 08:00:21;;;;;;;19.80;15.87;;;;;;;11.05;45.52;154196.03;5044731;28;20447;-77
2022/03/22 08:02:58;;;;;;;15.60;13.80;;;;;;;11.47;44.88;154304.84;5041890;28;20438;-75
2022/03/22 08:05:35;;;;;;;20.60;15.90;;;;;;;11.68;44.50;154359.28;5068369;28;20466;-76
2022/03/22 08:08:10;;;;;;;17.63;15.10;;;;;;;11.80;42.47;154390.44;5040707;28;20478;-76
2022/03/22 08:10:47;;;;;;;29.17;16.87;;;;;;;11.93;42.74;154424.16;5063041;28;20450;-76
2022/03/22 08:13:23;;;;;;;17.50;14.73;;;;;;;11.93;42.68;154424.16;5040435;28;20466;-77
2022/03/22 08:15:58;;;;;;;19.00;14.87;;;;;;;11.60;42.50;154338.53;5037251;28;20450;-77
2022/03/22 08:18:34;;;;;;;19.17;15.93;;;;;;;11.60;42.63;154338.53;5030853;28;20448;-77
2022/03/22 08:21:10;;;;;;;17.33;14.03;;;;;;;11.52;43.02;154319.09;5049909;28;20454;-77
2022/03/22 08:23:45;;;;;;;17.73;14.07;;;;;;;11.97;42.82;154434.50;5050551;28;20961;-78
2022/03/22 08:26:22;;;;;;;18.50;15.53;;;;;;;12.12;42.99;154472.13;5056595;28;20931;-77
2022/03/22 08:28:57;;;;;;;18.33;15.37;;;;;;;11.95;42.95;154429.31;5036899;28;20474;-75
2022/03/22 08:31:33;;;;;;;21.47;15.57;;;;;;;12.06;43.49;154456.53;5043511;28;20928;-75
2022/03/22 08:34:08;;;;;;;24.67;16.90;;;;;;;12.23;41.78;154501.91;5039844;28;20451;-75
2022/03/22 08:36:44;;;;;;;19.77;15.77;;;;;;;12.48;41.61;154565.44;5038651;28;20953;-75
2022/03/22 08:39:20;;;;;;;19.37;15.93;;;;;;;12.47;41.81;154561.59;5053709;28;20499;-75
2022/03/22 08:41:57;;;;;;;18.80;15.90;;;;;;;12.43;42.33;154551.19;5046221;28;20855;-75
2022/03/22 08:44:32;;;;;;;19.33;16.07;;;;;;;12.37;43.95;154535.59;5036791;28;20442;-77
2022/03/22 08:47:08;;;;;;;19.40;16.17;;;;;;;12.92;42.26;154678.25;5041616;28;20825;-77
2022/03/22 08:49:43;;;;;;;21.90;17.57;;;;;;;13.04;41.89;154708.13;5050766;28;20968;-77
2022/03/22 08:52:19;;;;;;;21.33;16.50;;;;;;;13.13;41.31;154732.78;5050941;28;20535;-77
2022/03/22 08:54:55;;;;;;;20.57;16.60;;;;;;;13.20;41.10;154751.00;5051968;28;20882;-77
2022/03/22 08:57:32;;;;;;;18.97;16.17;;;;;;;12.92;41.84;154677.00;5057776;28;20473;-77
2022/03/22 09:00:10;;;;;;;19.47;17.37;;;;;;;12.70;42.31;154622.53;5051145;28;20541;-77
2022/03/22 09:02:47;;;;;;;20.67;16.00;;;;;;;12.68;41.92;154616.03;5040947;28;20455;-76
2022/03/22 09:08:15;;;;;;;18.70;16.33;;;;;;;12.96;43.40;154688.66;5060563;28;20545;-77
2022/03/22 09:10:52;;;;;;;18.70;16.60;;;;;;;12.90;42.99;154673.09;5072530;28;20532;-76
2022/03/22 09:13:29;;;;;;;22.30;16.20;;;;;;;13.06;43.15;154713.28;5055034;28;20438;-76
2022/03/22 09:16:06;;;;;;;19.37;16.47;;;;;;;12.95;42.39;154686.06;5073064;28;20439;-76
2022/03/22 09:18:41;;;;;;;20.13;15.87;;;;;;;12.91;42.68;154675.69;5056243;28;20449;-76
2022/03/22 09:21:17;;;;;;;18.57;15.53;;;;;;;13.06;42.65;154713.28;5051699;28;20534;-76
2022/03/22 09:23:54;;;;;;;21.00;15.47;;;;;;;12.87;42.94;154665.28;5053770;28;20435;-76
2022/03/22 09:26:29;;;;;;;17.63;15.20;;;;;;;12.88;42.72;154667.91;5042707;28;20497;-76
2022/03/22 09:29:11;;;;;;;20.70;16.23;;;;;;;12.87;42.06;154665.28;5063381;28;20438;-76
2022/03/22 09:31:46;;;;;;;20.80;17.60;;;;;;;12.63;43.07;154603.03;5071268;28;20469;-76
2022/03/22 09:34:23;;;;;;;17.53;14.73;;;;;;;12.84;42.40;154657.50;5049319;28;20450;-76
2022/03/22 09:36:58;;;;;;;20.00;17.20;;;;;;;12.86;42.92;154661.44;5049612;28;20773;-77
2022/03/22 09:39:34;;;;;;;18.63;15.67;;;;;;;12.65;43.17;154609.56;5058506;28;20442;-76
2022/03/22 09:42:10;;;;;;;21.50;17.30;;;;;;;12.36;43.42;154533.03;5067246;28;20446;-76
2022/03/22 09:44:51;;;;;;;18.67;16.60;;;;;;;12.42;44.29;154548.56;5050188;28;20671;-76
2022/03/22 09:47:26;;;;;;;22.13;17.53;;;;;;;12.13;43.63;154474.66;5053218;28;20511;-76
2022/03/22 09:50:03;;;;;;;20.30;16.50;;;;;;;11.88;43.51;154411.19;5045798;28;20434;-76
2022/03/22 09:52:39;;;;;;;21.47;16.67;;;;;;;11.98;44.55;154437.09;5075839;28;20441;-76
2022/03/22 09:55:16;;;;;;;19.87;16.30;;;;;;;12.16;43.35;154482.47;5054450;28;20455;-76
2022/03/22 09:57:52;;;;;;;21.47;15.30;;;;;;;12.13;43.97;154475.97;5039537;28;20943;-76
2022/03/22 10:00:29;;;;;;;18.87;15.00;;;;;;;12.15;43.78;154481.16;5038036;28;20815;-76
2022/03/22 10:03:05;;;;;;;17.20;15.33;;;;;;;12.05;44.21;154455.25;5047248;28;20479;-76
2022/03/22 10:05:43;;;;;;;20.50;15.00;;;;;;;12.40;43.08;154544.69;5053422;28;20457;-76
2022/03/22 10:08:19;;;;;;;20.33;16.13;;;;;;;12.36;43.53;154534.34;5062935;28;20441;-76
2022/03/22 10:10:55;;;;;;;21.03;15.60;;;;;;;12.31;43.40;154520.09;5045082;28;20515;-76
2022/03/22 10:13:33;;;;;;;16.90;14.50;;;;;;;12.49;43.53;154568.06;5056261;28;20440;-76
2022/03/22 10:16:10;;;;;;;18.57;15.43;;;;;;;12.48;43.86;154565.44;5060462;28;20443;-77
2022/03/22 10:18:45;;;;;;;20.97;15.87;;;;;;;12.56;43.06;154586.19;5053090;28;20438;-76
2022/03/22 10:21:21;;;;;;;19.30;16.50;;;;;;;12.67;41.96;154613.44;5056558;28;20487;-76
2022/03/22 10:23:57;;;;;;;20.20;15.40;;;;;;;12.38;41.79;154538.22;5052339;28;20481;-76
2022/03/22 10:26:34;;;;;;;18.43;15.40;;;;;;;12.15;42.31;154479.91;5050472;28;20501;-76
2022/03/22 10:29:12;;;;;;;19.40;15.67;;;;;;;12.37;42.98;154535.59;5047115;28;20450;-77
2022/03/22 10:31:49;;;;;;;17.87;15.10;;;;;;;12.35;42.47;154531.75;5054438;28;20987;-76
2022/03/22 10:34:29;;;;;;;21.93;15.20;;;;;;;12.27;42.87;154509.69;5056035;28;20453;-76
2022/03/22 10:37:05;;;;;;;19.93;16.13;;;;;;;12.24;44.29;154503.19;5039407;28;20443;-76
2022/03/22 10:39:41;;;;;;;18.60;15.20;;;;;;;12.27;42.98;154509.69;5038258;28;20965;-76
2022/03/22 10:42:16;;;;;;;21.83;16.03;;;;;;;12.45;42.67;154557.66;5044366;28;22301;-76
2022/03/22 10:44:59;;;;;;;18.40;15.73;;;;;;;12.52;42.78;154575.78;5038389;28;20459;-76
2022/03/22 10:47:35;;;;;;;19.80;15.57;;;;;;;12.47;43.02;154561.59;5057296;28;20462;-77
2022/03/22 10:50:12;;;;;;;25.53;16.30;;;;;;;12.46;43.27;154558.97;5047279;28;20482;-76
2022/03/22 10:52:51;;;;;;;23.20;16.40;;;;;;;12.75;42.26;154634.19;5071099;28;20446;-76
2022/03/22 10:55:27;;;;;;;23.57;17.67;;;;;;;12.52;42.61;154574.53;5059155;28;20451;-77
2022/03/22 10:58:04;;;;;;;19.37;15.50;;;;;;;12.63;42.08;154603.03;5054258;28;20485;-76
2022/03/22 11:00:41;;;;;;;20.20;15.50;;;;;;;13.04;42.41;154708.13;5035311;28;20454;-76
2022/03/22 11:03:18;;;;;;;20.27;16.90;;;;;;;12.67;41.14;154613.44;5054400;28;20700;-76
2022/03/22 11:05:55;;;;;;;20.30;15.37;;;;;;;12.47;42.88;154561.59;5050147;28;20836;-76
2022/03/22 11:08:31;;;;;;;19.33;15.97;;;;;;;12.49;42.54;154568.06;5032816;28;20488;-76
2022/03/22 11:11:07;;;;;;;26.83;17.80;;;;;;;12.82;42.15;154652.31;5041734;28;20689;-76
2022/03/22 11:13:42;;;;;;;20.30;16.37;;;;;;;13.01;42.47;154701.63;5054960;28;20456;-76
2022/03/22 11:16:19;;;;;;;22.30;17.33;;;;;;;13.13;40.97;154731.53;5047422;28;20593;-77
2022/03/22 11:18:59;;;;;;;20.87;16.10;;;;;;;13.07;41.60;154717.25;5057048;28;20457;-76
2022/03/22 11:21:35;;;;;;;21.63;17.23;;;;;;;13.02;41.86;154702.94;5054092;28;20455;-76
2022/03/22 11:24:12;;;;;;;22.90;16.60;;;;;;;12.75;41.20;154634.19;5054179;28;20461;-77
2022/03/22 11:26:49;;;;;;;20.63;17.53;;;;;;;12.82;41.82;154653.63;5055393;28;20593;-77
2022/03/22 11:29:26;;;;;;;19.80;16.10;;;;;;;12.81;40.49;154651.03;5056542;28;20507;-76
2022/03/22 11:35:14;;;;;;;21.23;16.43;;;;;;;12.83;40.70;154654.94;4989440;28;20955;-76
2022/03/22 11:37:59;;;;;;;20.37;15.97;;;;;;;12.76;39.95;154638.06;5004616;28;20441;-76
2022/03/22 11:43:43;;;;;;;20.47;15.90;;;;;;;12.82;39.32;154652.31;5053489;28;20444;-76
2022/03/22 11:46:18;;;;;;;20.97;15.10;;;;;;;12.86;39.31;154662.72;5034034;28;20435;-76
2022/03/22 11:48:54;;;;;;;20.60;15.80;;;;;;;12.96;38.37;154687.34;5070484;28;20779;-76
2022/03/22 11:51:36;;;;;;;19.90;14.90;;;;;;;13.40;37.53;154802.88;5046470;28;21264;-76
2022/03/22 11:54:11;;;;;;;77.13;21.03;;;;;;;13.32;37.47;154782.13;5032622;28;20466;-76
2022/03/22 11:56:48;;;;;;;18.20;13.83;;;;;;;13.18;37.84;154745.81;5053062;28;20456;-76
2022/03/22 11:59:24;;;;;;;20.30;14.87;;;;;;;13.10;37.78;154725.06;5056701;28;20770;-76
2022/03/22 12:02:01;;;;;;;21.63;14.40;;;;;;;13.34;37.05;154787.28;5055817;28;20450;-76
2022/03/22 12:04:41;;;;;;;20.80;14.77;;;;;;;13.36;35.76;154792.53;5066262;28;20443;-76
2022/03/22 12:07:24;;;;;;;24.93;13.67;;;;;;;13.21;37.02;154753.56;5053611;28;20471;-76
2022/03/22 12:10:07;;;;;;;22.67;17.20;;;;;;;13.32;36.34;154782.13;5042782;28;20542;-76
2022/03/22 12:12:48;;;;;;;19.53;15.43;;;;;;;13.42;36.36;154806.81;5046525;28;20835;-76
2022/03/22 12:15:24;;;;;;;21.57;16.17;;;;;;;13.30;36.92;154775.63;5067269;28;20850;-76
2022/03/22 12:18:00;;;;;;;20.27;16.20;;;;;;;13.32;38.35;154782.13;5054556;28;20788;-76
2022/03/22 12:20:36;;;;;;;20.90;16.90;;;;;;;13.32;36.94;154782.13;5053401;28;20451;-76
2022/03/22 12:23:21;;;;;;;21.47;16.10;;;;;;;13.31;37.31;154779.56;5035854;28;20530;-76
2022/03/22 12:25:57;;;;;;;20.10;15.50;;;;;;;13.41;36.93;154805.50;5052187;28;20454;-76
2022/03/22 12:28:32;;;;;;;19.43;15.30;;;;;;;13.37;36.86;154795.09;5048200;28;20823;-76
2022/03/22 12:31:12;;;;;;;20.20;16.03;;;;;;;13.56;36.81;154841.78;5066364;28;20552;-76